Time,TemperatureF,DewpointF,PressureIn,WindDirection,WindDirectionDegrees,WindSpeedMPH,WindSpeedGustMPH,Humidity,HourlyPrecipIn,Conditions,Clouds,dailyrainin,SolarRadiationWatts/m^2,SoftwareType,DateUTC
2013-10-04 00:04:00,63.0,59.0,29.71,SSE,147,4.0,9.0,87,0.08,,,1.25,0,HR-IXPWINDi_r2_v1.2.,2013-10-04 05:04:00,
2013-10-04 00:10:00,62.6,58.6,29.71,ESE,113,4.0,9.0,87,0.07,,,1.25,0,HR-IXPWINDi_r2_v1.2.,2013-10-04 05:10:00,
2013-10-04 00:15:00,62.3,58.9,29.70,East,92,5.0,10.0,89,0.04,,,1.25,0,HR-IXPWINDi_r2_v1.2.,2013-10-04 05:15:00,
2013-10-04 00:21:00,62.4,59.0,29.69,East,89,6.0,10.0,89,0.04,,,0.01,0,HR-IXPWINDi_r2_v1.2.,2013-10-04 05:21:00,
2013-10-04 00:26:00,62.8,58.8,29.68,ENE,71,8.0,11.0,87,0.04,,,0.01,0,HR-IXPWINDi_r2_v1.2.,2013-10-04 05:26:00,
2013-10-04 00:31:00,63.1,91.3,29.69,SE,136,2.0,11.0,-999,0.06,,,0.02,0,HR-IXPWINDi_r2_v1.2.,2013-10-04 05:31:00,
2013-10-04 00:36:00,63.1,58.8,29.67,ENE,72,7.0,10.0,86,0.06,,,0.02,0,HR-IXPWINDi_r2_v1.2.,2013-10-04 05:36:00,
2013-10-04 00:41:00,63.5,58.8,29.68,SSE,150,12.0,12.0,85,0.06,,,0.03,0,HR-IXPWINDi_r2_v1.2.,2013-10-04 05:41:00,
2013-10-04 00:46:00,63.7,58.7,29.67,NE,49,8.0,12.0,84,0.06,,,0.03,0,HR-IXPWINDi_r2_v1.2.,2013-10-04 05:46:00,
2013-10-04 00:51:00,64.9,58.5,29.66,SE,142,5.0,12.0,80,0.07,,,0.04,0,HR-IXPWINDi_r2_v1.2.,2013-10-04 05:51:00,
2013-10-04 00:57:00,65.6,58.5,29.67,SSW,206,0.0,11.0,78,0.06,,,0.04,0,HR-IXPWINDi_r2_v1.2.,2013-10-04 05:57:00,
2013-10-04 01:02:00,64.5,58.5,29.67,South,188,1.0,11.0,81,0.04,,,0.04,0,HR-IXPWINDi_r2_v1.2.,2013-10-04 06:02:00,
2013-10-04 01:07:00,63.9,58.2,29.67,East,101,7.0,12.0,82,0.00,,,0.04,0,HR-IXPWINDi_r2_v1.2.,2013-10-04 06:07:00,
2013-10-04 01:13:00,63.5,58.5,29.66,SE,133,6.0,12.0,84,0.00,,,0.04,0,HR-IXPWINDi_r2_v1.2.,2013-10-04 06:13:00,
2013-10-04 01:18:00,63.2,58.5,29.67,ESE,112,3.0,8.0,85,0.00,,,0.04,0,HR-IXPWINDi_r2_v1.2.,2013-10-04 06:18:00,
2013-10-04 01:23:00,63.2,58.5,29.67,South,172,1.0,7.0,85,0.00,,,0.04,0,HR-IXPWINDi_r2_v1.2.,2013-10-04 06:23:00,
2013-10-04 01:28:00,63.1,58.5,29.68,SSE,151,1.0,7.0,85,0.00,,,0.04,0,HR-IXPWINDi_r2_v1.2.,2013-10-04 06:28:00,
2013-10-04 01:33:00,63.1,58.5,29.70,WSW,257,0.0,4.0,85,0.00,,,0.04,0,HR-IXPWINDi_r2_v1.2.,2013-10-04 06:33:00,
2013-10-04 01:38:00,62.8,58.5,29.71,NNE,12,1.0,7.0,86,0.00,,,0.04,0,HR-IXPWINDi_r2_v1.2.,2013-10-04 06:38:00,
2013-10-04 01:43:00,63.0,59.0,29.73,NW,304,2.0,8.0,87,0.00,,,0.04,0,HR-IXPWINDi_r2_v1.2.,2013-10-04 06:43:00,
2013-10-04 01:48:00,63.4,59.1,29.73,WNW,296,0.0,8.0,86,0.00,,,0.04,0,HR-IXPWINDi_r2_v1.2.,2013-10-04 06:48:00,
2013-10-04 01:53:00,63.5,59.2,29.72,NNW,330,2.0,5.0,86,0.00,,,0.04,0,HR-IXPWINDi_r2_v1.2.,2013-10-04 06:53:00,
2013-10-04 01:58:00,63.8,59.8,29.73,NW,308,3.0,10.0,87,0.00,,,0.04,0,HR-IXPWINDi_r2_v1.2.,2013-10-04 06:58:00,
2013-10-04 02:04:00,63.8,60.4,29.77,WNW,299,5.0,10.0,89,0.00,,,0.05,0,HR-IXPWINDi_r2_v1.2.,2013-10-04 07:04:00,
2013-10-04 02:09:00,63.8,60.7,29.76,WNW,302,5.0,11.0,90,2.33,,,0.12,0,HR-IXPWINDi_r2_v1.2.,2013-10-04 07:09:00,
2013-10-04 02:14:00,63.9,61.5,29.75,North,9,5.0,11.0,92,0.23,,,0.19,0,HR-IXPWINDi_r2_v1.2.,2013-10-04 07:14:00,
2013-10-04 02:19:00,63.9,61.5,29.72,NNE,12,10.0,13.0,92,0.12,,,0.20,0,HR-IXPWINDi_r2_v1.2.,2013-10-04 07:19:00,
2013-10-04 02:24:00,64.1,61.7,29.74,NNE,12,5.0,15.0,92,0.06,,,0.20,0,HR-IXPWINDi_r2_v1.2.,2013-10-04 07:24:00,
2013-10-04 02:30:00,64.4,62.3,29.74,NE,45,9.0,15.0,93,0.04,,,0.20,0,HR-IXPWINDi_r2_v1.2.,2013-10-04 07:30:00,
2013-10-04 02:35:00,64.7,62.6,29.74,NE,51,8.0,13.0,93,0.00,,,0.20,0,HR-IXPWINDi_r2_v1.2.,2013-10-04 07:35:00,
2013-10-04 02:41:00,64.6,62.2,29.74,NNE,29,13.0,15.0,92,0.00,,,0.20,0,HR-IXPWINDi_r2_v1.2.,2013-10-04 07:41:00,
2013-10-04 02:46:00,64.5,62.4,29.72,ENE,60,8.0,18.0,93,0.00,,,0.21,0,HR-IXPWINDi_r2_v1.2.,2013-10-04 07:46:00,
2013-10-04 02:51:00,64.4,62.3,29.72,North,360,9.0,18.0,93,0.00,,,0.21,0,HR-IXPWINDi_r2_v1.2.,2013-10-04 07:51:00,
2013-10-04 02:56:00,64.3,61.9,29.72,North,360,12.0,16.0,92,0.00,,,0.21,0,HR-IXPWINDi_r2_v1.2.,2013-10-04 07:56:00,
2013-10-04 03:02:00,64.3,61.9,29.71,NE,55,5.0,15.0,92,0.00,,,0.22,0,HR-IXPWINDi_r2_v1.2.,2013-10-04 08:02:00,
2013-10-04 03:07:00,64.2,61.8,29.71,NE,35,9.0,15.0,92,0.00,,,0.22,0,HR-IXPWINDi_r2_v1.2.,2013-10-04 08:07:00,
2013-10-04 03:12:00,64.3,61.9,29.71,ENE,57,8.0,15.0,92,0.00,,,0.22,0,HR-IXPWINDi_r2_v1.2.,2013-10-04 08:12:00,
2013-10-04 03:17:00,64.4,62.0,29.71,ENE,69,11.0,14.0,92,0.00,,,0.22,0,HR-IXPWINDi_r2_v1.2.,2013-10-04 08:17:00,
2013-10-04 03:22:00,64.5,61.7,29.71,ENE,57,13.0,17.0,91,0.00,,,0.22,0,HR-IXPWINDi_r2_v1.2.,2013-10-04 08:22:00,
2013-10-04 03:27:00,64.6,61.8,29.71,NE,52,8.0,17.0,91,0.00,,,0.22,0,HR-IXPWINDi_r2_v1.2.,2013-10-04 08:27:00,
2013-10-04 03:33:00,64.5,61.4,29.70,ENE,61,9.0,15.0,90,0.00,,,0.22,0,HR-IXPWINDi_r2_v1.2.,2013-10-04 08:33:00,
2013-10-04 03:38:00,64.5,61.1,29.71,ENE,68,8.0,15.0,89,0.00,,,0.22,0,HR-IXPWINDi_r2_v1.2.,2013-10-04 08:38:00,
2013-10-04 03:43:00,64.5,61.1,29.70,NNE,33,7.0,15.0,89,0.00,,,0.22,0,HR-IXPWINDi_r2_v1.2.,2013-10-04 08:43:00,
2013-10-04 03:48:00,64.5,61.1,29.71,ENE,67,8.0,13.0,89,0.00,,,0.22,0,HR-IXPWINDi_r2_v1.2.,2013-10-04 08:48:00,
2013-10-04 03:53:00,64.5,60.8,29.70,NE,46,8.0,12.0,88,0.00,,,0.22,0,HR-IXPWINDi_r2_v1.2.,2013-10-04 08:53:00,
2013-10-04 03:59:00,64.2,60.5,29.70,NE,42,7.0,12.0,88,0.00,,,0.22,0,HR-IXPWINDi_r2_v1.2.,2013-10-04 08:59:00,
2013-10-04 04:04:00,63.9,60.5,29.70,ENE,76,7.0,13.0,89,0.00,,,0.22,0,HR-IXPWINDi_r2_v1.2.,2013-10-04 09:04:00,
2013-10-04 04:09:00,63.8,60.4,29.71,ENE,65,7.0,13.0,89,0.00,,,0.22,0,HR-IXPWINDi_r2_v1.2.,2013-10-04 09:09:00,
2013-10-04 04:14:00,63.5,60.4,29.68,NE,51,12.0,12.0,90,1.91,,,0.27,0,HR-IXPWINDi_r2_v1.2.,2013-10-04 09:14:00,
2013-10-04 04:19:00,63.1,60.4,29.70,ENE,58,3.0,12.0,91,1.10,,,0.34,0,HR-IXPWINDi_r2_v1.2.,2013-10-04 09:19:00,
2013-10-04 04:24:00,62.9,60.5,29.71,NE,48,11.0,12.0,92,0.20,,,0.37,0,HR-IXPWINDi_r2_v1.2.,2013-10-04 09:24:00,
2013-10-04 04:30:00,62.9,60.5,29.72,NNE,19,8.0,12.0,92,0.07,,,0.37,0,HR-IXPWINDi_r2_v1.2.,2013-10-04 09:30:00,
2013-10-04 04:35:00,62.8,60.4,29.74,NE,34,5.0,12.0,92,0.05,,,0.37,0,HR-IXPWINDi_r2_v1.2.,2013-10-04 09:35:00,
2013-10-04 04:40:00,63.2,60.8,29.74,NE,51,6.0,14.0,92,0.00,,,0.38,0,HR-IXPWINDi_r2_v1.2.,2013-10-04 09:40:00,
2013-10-04 04:45:00,63.3,60.9,29.73,NE,54,8.0,14.0,92,0.00,,,0.38,0,HR-IXPWINDi_r2_v1.2.,2013-10-04 09:45:00,
2013-10-04 04:50:00,63.3,60.6,29.73,NE,36,6.0,14.0,91,0.07,,,0.39,0,HR-IXPWINDi_r2_v1.2.,2013-10-04 09:50:00,
2013-10-04 04:55:00,63.2,60.5,29.73,NE,44,5.0,14.0,91,0.07,,,0.39,0,HR-IXPWINDi_r2_v1.2.,2013-10-04 09:55:00,
2013-10-04 05:00:00,63.1,60.4,29.72,NE,51,7.0,11.0,91,0.05,,,0.39,0,HR-IXPWINDi_r2_v1.2.,2013-10-04 10:00:00,
2013-10-04 05:05:00,63.1,60.4,29.73,ENE,69,3.0,10.0,91,0.00,,,0.39,0,HR-IXPWINDi_r2_v1.2.,2013-10-04 10:05:00,
2013-10-04 05:10:00,63.1,60.4,29.75,ENE,69,0.0,10.0,91,0.00,,,0.39,0,HR-IXPWINDi_r2_v1.2.,2013-10-04 10:10:00,
2013-10-04 05:16:00,63.1,60.7,29.75,SW,216,0.0,4.0,92,0.00,,,0.39,0,HR-IXPWINDi_r2_v1.2.,2013-10-04 10:16:00,
2013-10-04 05:21:00,63.1,60.7,29.75,SW,217,1.0,3.0,92,0.00,,,0.40,0,HR-IXPWINDi_r2_v1.2.,2013-10-04 10:21:00,
2013-10-04 05:26:00,62.8,60.4,29.74,NNE,33,6.0,9.0,92,0.00,,,0.40,0,HR-IXPWINDi_r2_v1.2.,2013-10-04 10:26:00,
2013-10-04 05:31:00,63.0,60.6,29.74,NE,51,4.0,14.0,92,0.00,,,0.40,0,HR-IXPWINDi_r2_v1.2.,2013-10-04 10:31:00,
2013-10-04 05:37:00,63.0,60.3,29.74,NE,48,13.0,14.0,91,0.00,,,0.40,0,HR-IXPWINDi_r2_v1.2.,2013-10-04 10:37:00,
2013-10-04 05:42:00,63.0,60.3,29.75,ENE,68,4.0,14.0,91,0.00,,,0.41,0,HR-IXPWINDi_r2_v1.2.,2013-10-04 10:42:00,
2013-10-04 05:47:00,63.0,60.3,29.75,ENE,73,9.0,14.0,91,0.08,,,0.42,0,HR-IXPWINDi_r2_v1.2.,2013-10-04 10:47:00,
2013-10-04 05:52:00,63.0,60.3,29.74,East,81,1.0,10.0,91,0.08,,,0.42,0,HR-IXPWINDi_r2_v1.2.,2013-10-04 10:52:00,
2013-10-04 05:57:00,62.9,60.2,29.74,ENE,66,5.0,10.0,91,0.05,,,0.43,0,HR-IXPWINDi_r2_v1.2.,2013-10-04 10:57:00,
2013-10-04 06:02:00,62.7,60.0,29.74,ENE,70,3.0,10.0,91,0.05,,,0.43,0,HR-IXPWINDi_r2_v1.2.,2013-10-04 11:02:00,
2013-10-04 06:07:00,62.6,60.2,29.74,ENE,65,7.0,9.0,92,0.05,,,0.43,0,HR-IXPWINDi_r2_v1.2.,2013-10-04 11:07:00,
2013-10-04 06:12:00,62.4,60.0,29.75,ENE,62,3.0,10.0,92,0.04,,,0.43,0,HR-IXPWINDi_r2_v1.2.,2013-10-04 11:12:00,
2013-10-04 06:17:00,62.3,59.9,29.74,East,79,6.0,11.0,92,0.04,,,0.44,0,HR-IXPWINDi_r2_v1.2.,2013-10-04 11:17:00,
2013-10-04 06:22:00,62.3,59.9,29.74,East,80,3.0,11.0,92,0.04,,,0.44,0,HR-IXPWINDi_r2_v1.2.,2013-10-04 11:22:00,
2013-10-04 06:28:00,62.3,59.9,29.74,East,98,6.0,11.0,92,0.04,,,0.44,0,HR-IXPWINDi_r2_v1.2.,2013-10-04 11:28:00,
2013-10-04 06:33:00,62.3,59.9,29.74,East,89,8.0,13.0,92,0.04,,,0.45,0,HR-IXPWINDi_r2_v1.2.,2013-10-04 11:33:00,
2013-10-04 06:38:00,62.3,59.9,29.74,ENE,77,7.0,13.0,92,0.04,,,0.45,0,HR-IXPWINDi_r2_v1.2.,2013-10-04 11:38:00,
2013-10-04 06:43:00,62.3,59.9,29.74,ENE,69,8.0,14.0,92,0.04,,,0.45,0,HR-IXPWINDi_r2_v1.2.,2013-10-04 11:43:00,
2013-10-04 06:48:00,62.4,60.0,29.74,NE,51,12.0,14.0,92,0.00,,,0.45,0,HR-IXPWINDi_r2_v1.2.,2013-10-04 11:48:00,
2013-10-04 06:54:00,62.4,60.0,29.74,ENE,69,5.0,14.0,92,0.00,,,0.45,0,HR-IXPWINDi_r2_v1.2.,2013-10-04 11:54:00,
2013-10-04 06:59:00,62.4,59.7,29.74,ENE,70,11.0,14.0,91,0.00,,,0.45,0,HR-IXPWINDi_r2_v1.2.,2013-10-04 11:59:00,
2013-10-04 07:04:00,62.4,59.7,29.74,ESE,107,7.0,13.0,91,0.00,,,0.45,0,HR-IXPWINDi_r2_v1.2.,2013-10-04 12:04:00,
2013-10-04 07:09:00,62.4,60.0,29.74,East,84,5.0,12.0,92,0.00,,,0.45,0,HR-IXPWINDi_r2_v1.2.,2013-10-04 12:09:00,
2013-10-04 07:14:00,62.4,60.0,29.74,East,80,7.0,12.0,92,0.00,,,0.45,0,HR-IXPWINDi_r2_v1.2.,2013-10-04 12:14:00,
2013-10-04 07:20:00,62.5,59.8,29.74,ENE,65,9.0,14.0,91,0.00,,,0.46,0,HR-IXPWINDi_r2_v1.2.,2013-10-04 12:20:00,
2013-10-04 07:25:00,62.5,59.8,29.73,ENE,78,7.0,14.0,91,0.00,,,0.46,0,HR-IXPWINDi_r2_v1.2.,2013-10-04 12:25:00,
2013-10-04 07:30:00,62.6,59.9,29.73,East,82,7.0,12.0,91,0.00,,,0.46,0,HR-IXPWINDi_r2_v1.2.,2013-10-04 12:30:00,
2013-10-04 07:35:00,62.8,60.1,29.73,NE,56,9.0,13.0,91,0.00,,,0.46,0,HR-IXPWINDi_r2_v1.2.,2013-10-04 12:35:00,
2013-10-04 07:40:00,62.9,59.9,29.73,ENE,77,10.0,14.0,90,0.00,,,0.46,0,HR-IXPWINDi_r2_v1.2.,2013-10-04 12:40:00,
2013-10-04 07:46:00,63.0,60.0,29.72,ENE,73,9.0,16.0,90,0.00,,,0.46,18,HR-IXPWINDi_r2_v1.2.,2013-10-04 12:46:00,
2013-10-04 07:51:00,63.1,60.1,29.72,ENE,68,13.0,16.0,90,0.00,,,0.46,37,HR-IXPWINDi_r2_v1.2.,2013-10-04 12:51:00,
2013-10-04 07:56:00,63.4,60.3,29.72,ENE,76,5.0,16.0,90,0.00,,,0.46,53,HR-IXPWINDi_r2_v1.2.,2013-10-04 12:56:00,
2013-10-04 08:01:00,63.4,60.0,29.72,NE,55,6.0,15.0,89,0.00,,,0.46,42,HR-IXPWINDi_r2_v1.2.,2013-10-04 13:01:00,
2013-10-04 08:06:00,63.5,60.1,29.72,ENE,66,7.0,14.0,89,0.00,,,0.46,44,HR-IXPWINDi_r2_v1.2.,2013-10-04 13:06:00,
2013-10-04 08:12:00,63.4,60.0,29.72,North,360,7.0,14.0,89,0.00,,,0.46,32,HR-IXPWINDi_r2_v1.2.,2013-10-04 13:12:00,
2013-10-04 08:17:00,63.4,60.0,29.72,East,86,8.0,14.0,89,0.00,,,0.46,42,HR-IXPWINDi_r2_v1.2.,2013-10-04 13:17:00,
2013-10-04 08:22:00,63.4,60.0,29.72,East,88,13.0,13.0,89,0.00,,,0.46,18,HR-IXPWINDi_r2_v1.2.,2013-10-04 13:22:00,
2013-10-04 08:27:00,63.4,60.0,29.72,East,82,9.0,13.0,89,0.00,,,0.46,42,HR-IXPWINDi_r2_v1.2.,2013-10-04 13:27:00,
2013-10-04 08:33:00,63.5,60.1,29.72,East,92,8.0,15.0,89,0.00,,,0.46,49,HR-IXPWINDi_r2_v1.2.,2013-10-04 13:33:00,
2013-10-04 08:38:00,63.6,60.2,29.71,ENE,59,7.0,15.0,89,0.00,,,0.46,69,HR-IXPWINDi_r2_v1.2.,2013-10-04 13:38:00,
2013-10-04 08:43:00,63.8,60.1,29.71,NE,55,11.0,16.0,88,0.00,,,0.46,46,HR-IXPWINDi_r2_v1.2.,2013-10-04 13:43:00,
2013-10-04 08:48:00,64.0,60.0,29.71,ENE,72,11.0,16.0,87,0.00,,,0.46,12,HR-IXPWINDi_r2_v1.2.,2013-10-04 13:48:00,
2013-10-04 08:53:00,64.1,59.8,29.71,ENE,68,12.0,15.0,86,0.00,,,0.46,9,HR-IXPWINDi_r2_v1.2.,2013-10-04 13:53:00,
2013-10-04 08:58:00,64.1,59.8,29.71,ENE,73,12.0,15.0,86,0.00,,,0.46,12,HR-IXPWINDi_r2_v1.2.,2013-10-04 13:58:00,
2013-10-04 09:03:00,64.1,59.8,29.71,ENE,64,11.0,15.0,86,0.00,,,0.46,28,HR-IXPWINDi_r2_v1.2.,2013-10-04 14:03:00,
2013-10-04 09:08:00,64.1,59.8,29.71,NE,54,11.0,17.0,86,0.00,,,0.46,19,HR-IXPWINDi_r2_v1.2.,2013-10-04 14:08:00,
2013-10-04 09:13:00,64.2,59.9,29.70,ENE,78,8.0,17.0,86,0.00,,,0.46,18,HR-IXPWINDi_r2_v1.2.,2013-10-04 14:13:00,
2013-10-04 09:19:00,64.1,59.8,29.71,ENE,78,5.0,13.0,86,0.00,,,0.46,12,HR-IXPWINDi_r2_v1.2.,2013-10-04 14:19:00,
2013-10-04 09:24:00,64.0,59.7,29.71,ENE,73,5.0,12.0,86,0.00,,,0.46,19,HR-IXPWINDi_r2_v1.2.,2013-10-04 14:24:00,
2013-10-04 09:29:00,64.0,60.0,29.70,East,85,5.0,13.0,87,0.00,,,0.46,14,HR-IXPWINDi_r2_v1.2.,2013-10-04 14:29:00,
2013-10-04 09:34:00,63.9,59.9,29.71,ENE,63,8.0,13.0,87,0.00,,,0.46,16,HR-IXPWINDi_r2_v1.2.,2013-10-04 14:34:00,
2013-10-04 09:39:00,64.0,60.0,29.70,ENE,66,9.0,14.0,87,0.00,,,0.46,18,HR-IXPWINDi_r2_v1.2.,2013-10-04 14:39:00,
2013-10-04 09:45:00,64.0,60.0,29.70,ENE,77,5.0,15.0,87,0.00,,,0.46,39,HR-IXPWINDi_r2_v1.2.,2013-10-04 14:45:00,
2013-10-04 09:50:00,64.0,60.3,29.70,ESE,121,5.0,15.0,88,0.00,,,0.46,32,HR-IXPWINDi_r2_v1.2.,2013-10-04 14:50:00,
2013-10-04 09:55:00,64.0,60.3,29.70,ENE,69,5.0,14.0,88,0.00,,,0.46,26,HR-IXPWINDi_r2_v1.2.,2013-10-04 14:55:00,
2013-10-04 10:00:00,64.1,60.4,29.71,East,85,3.0,10.0,88,0.00,,,0.46,25,HR-IXPWINDi_r2_v1.2.,2013-10-04 15:00:00,
2013-10-04 10:05:00,64.3,60.6,29.71,SE,145,4.0,10.0,88,0.00,,,0.46,35,HR-IXPWINDi_r2_v1.2.,2013-10-04 15:05:00,
2013-10-04 10:11:00,64.4,61.0,29.70,East,80,3.0,10.0,89,0.00,,,0.46,49,HR-IXPWINDi_r2_v1.2.,2013-10-04 15:11:00,
2013-10-04 10:16:00,64.5,61.1,29.70,East,100,5.0,9.0,89,0.00,,,0.46,47,HR-IXPWINDi_r2_v1.2.,2013-10-04 15:16:00,
2013-10-04 10:21:00,64.7,61.3,29.70,ESE,103,4.0,9.0,89,0.00,,,0.46,58,HR-IXPWINDi_r2_v1.2.,2013-10-04 15:21:00,
2013-10-04 10:26:00,64.9,61.5,29.70,East,96,6.0,11.0,89,0.00,,,0.46,83,HR-IXPWINDi_r2_v1.2.,2013-10-04 15:26:00,
2013-10-04 10:31:00,65.0,61.6,29.70,ENE,75,9.0,13.0,89,0.00,,,0.46,98,HR-IXPWINDi_r2_v1.2.,2013-10-04 15:31:00,
2013-10-04 10:36:00,65.2,61.8,29.69,ENE,78,7.0,13.0,89,0.00,,,0.46,125,HR-IXPWINDi_r2_v1.2.,2013-10-04 15:36:00,
2013-10-04 10:42:00,65.4,62.3,29.69,East,94,6.0,12.0,90,0.00,,,0.46,100,HR-IXPWINDi_r2_v1.2.,2013-10-04 15:42:00,
2013-10-04 10:47:00,65.8,62.7,29.69,ESE,116,10.0,14.0,90,0.00,,,0.46,144,HR-IXPWINDi_r2_v1.2.,2013-10-04 15:47:00,
2013-10-04 10:52:00,65.8,62.4,29.69,East,82,9.0,14.0,89,0.00,,,0.46,116,HR-IXPWINDi_r2_v1.2.,2013-10-04 15:52:00,
2013-10-04 10:57:00,66.0,62.6,29.69,ESE,103,9.0,13.0,89,0.00,,,0.46,125,HR-IXPWINDi_r2_v1.2.,2013-10-04 15:57:00,
2013-10-04 11:02:00,66.0,62.6,29.69,East,80,9.0,13.0,89,0.00,,,0.46,163,HR-IXPWINDi_r2_v1.2.,2013-10-04 16:02:00,
2013-10-04 11:07:00,66.2,62.8,29.69,East,84,6.0,14.0,89,0.00,,,0.46,171,HR-IXPWINDi_r2_v1.2.,2013-10-04 16:07:00,
2013-10-04 11:12:00,66.5,63.1,29.69,East,85,7.0,14.0,89,0.00,,,0.46,258,HR-IXPWINDi_r2_v1.2.,2013-10-04 16:12:00,
2013-10-04 11:18:00,66.8,63.1,29.69,East,82,8.0,11.0,88,0.00,,,0.46,211,HR-IXPWINDi_r2_v1.2.,2013-10-04 16:18:00,
2013-10-04 11:23:00,66.9,63.2,29.69,ENE,77,9.0,13.0,88,0.00,,,0.46,139,HR-IXPWINDi_r2_v1.2.,2013-10-04 16:23:00,
2013-10-04 11:28:00,67.0,63.3,29.68,ESE,107,5.0,15.0,88,0.00,,,0.46,420,HR-IXPWINDi_r2_v1.2.,2013-10-04 16:28:00,
2013-10-04 11:33:00,67.5,63.8,29.68,ENE,73,4.0,15.0,88,0.00,,,0.46,325,HR-IXPWINDi_r2_v1.2.,2013-10-04 16:33:00,
2013-10-04 11:38:00,68.2,64.1,29.68,ENE,69,8.0,14.0,87,0.00,,,0.46,796,HR-IXPWINDi_r2_v1.2.,2013-10-04 16:38:00,
2013-10-04 11:43:00,69.3,64.5,29.68,East,93,8.0,13.0,85,0.00,,,0.46,410,HR-IXPWINDi_r2_v1.2.,2013-10-04 16:43:00,
2013-10-04 11:48:00,69.5,64.7,29.67,ENE,63,9.0,16.0,85,0.00,,,0.46,628,HR-IXPWINDi_r2_v1.2.,2013-10-04 16:48:00,
2013-10-04 11:54:00,70.1,65.3,29.67,East,89,8.0,16.0,85,0.00,,,0.46,413,HR-IXPWINDi_r2_v1.2.,2013-10-04 16:54:00,
2013-10-04 11:59:00,69.5,64.4,29.68,East,83,9.0,14.0,84,0.00,,,0.46,288,HR-IXPWINDi_r2_v1.2.,2013-10-04 16:59:00,
2013-10-04 12:04:00,69.8,65.4,29.68,ESE,107,11.0,14.0,86,0.00,,,0.46,209,HR-IXPWINDi_r2_v1.2.,2013-10-04 17:04:00,
2013-10-04 12:09:00,70.1,65.3,29.68,East,85,9.0,15.0,85,0.00,,,0.46,185,HR-IXPWINDi_r2_v1.2.,2013-10-04 17:09:00,
2013-10-04 12:14:00,69.8,65.0,29.67,ENE,69,10.0,15.0,85,0.00,,,0.46,102,HR-IXPWINDi_r2_v1.2.,2013-10-04 17:14:00,
2013-10-04 12:20:00,69.4,65.0,29.67,ENE,66,12.0,13.0,86,0.00,,,0.46,211,HR-IXPWINDi_r2_v1.2.,2013-10-04 17:20:00,
2013-10-04 12:25:00,69.7,65.6,29.67,South,172,2.0,13.0,87,0.00,,,0.46,225,HR-IXPWINDi_r2_v1.2.,2013-10-04 17:25:00,
2013-10-04 12:30:00,70.1,65.7,29.67,ESE,104,4.0,13.0,86,0.00,,,0.46,213,HR-IXPWINDi_r2_v1.2.,2013-10-04 17:30:00,
2013-10-04 12:35:00,70.1,65.7,29.67,East,83,7.0,10.0,86,0.00,,,0.46,169,HR-IXPWINDi_r2_v1.2.,2013-10-04 17:35:00,
2013-10-04 13:02:00,72.5,67.3,29.67,South,171,5.0,11.0,84,0.00,,,0.46,146,HR-IXPWINDi_r2_v1.2.,2013-10-04 18:02:00,
2013-10-04 13:07:00,72.6,67.4,29.66,ESE,103,7.0,11.0,84,0.00,,,0.46,146,HR-IXPWINDi_r2_v1.2.,2013-10-04 18:07:00,
2013-10-04 13:12:00,72.8,67.6,29.65,ESE,102,10.0,11.0,84,0.00,,,0.46,306,HR-IXPWINDi_r2_v1.2.,2013-10-04 18:12:00,
2013-10-04 13:17:00,73.2,68.0,29.65,SE,140,5.0,11.0,84,0.00,,,0.46,301,HR-IXPWINDi_r2_v1.2.,2013-10-04 18:17:00,
2013-10-04 13:22:00,73.6,68.1,29.65,East,80,7.0,11.0,83,0.00,,,0.46,276,HR-IXPWINDi_r2_v1.2.,2013-10-04 18:22:00,
2013-10-04 13:27:00,74.0,68.4,29.64,ESE,110,4.0,13.0,83,0.00,,,0.46,404,HR-IXPWINDi_r2_v1.2.,2013-10-04 18:27:00,
2013-10-04 13:32:00,74.8,68.5,29.63,SE,138,6.0,13.0,81,0.00,,,0.46,353,HR-IXPWINDi_r2_v1.2.,2013-10-04 18:32:00,
2013-10-04 13:38:00,74.9,68.6,29.62,East,89,8.0,14.0,81,0.00,,,0.46,397,HR-IXPWINDi_r2_v1.2.,2013-10-04 18:38:00,
2013-10-04 13:43:00,76.1,69.4,29.63,SSE,148,4.0,14.0,80,0.00,,,0.46,392,HR-IXPWINDi_r2_v1.2.,2013-10-04 18:43:00,
2013-10-04 13:48:00,75.8,68.8,29.62,East,79,9.0,17.0,79,0.00,,,0.46,334,HR-IXPWINDi_r2_v1.2.,2013-10-04 18:48:00,
2013-10-04 13:53:00,75.5,68.8,29.62,East,88,7.0,17.0,80,0.00,,,0.46,306,HR-IXPWINDi_r2_v1.2.,2013-10-04 18:53:00,
2013-10-04 13:58:00,75.8,69.1,29.62,ESE,107,8.0,11.0,80,0.00,,,0.46,257,HR-IXPWINDi_r2_v1.2.,2013-10-04 18:58:00,
2013-10-04 14:04:00,75.5,68.8,29.62,East,95,7.0,11.0,80,0.00,,,0.46,188,HR-IXPWINDi_r2_v1.2.,2013-10-04 19:04:00,
2013-10-04 14:09:00,75.6,69.3,29.62,East,96,8.0,12.0,81,0.00,,,0.46,200,HR-IXPWINDi_r2_v1.2.,2013-10-04 19:09:00,
2013-10-04 14:14:00,75.2,68.9,29.61,East,88,5.0,12.0,81,0.00,,,0.46,193,HR-IXPWINDi_r2_v1.2.,2013-10-04 19:14:00,
2013-10-04 14:20:00,75.4,69.5,29.62,ESE,105,3.0,9.0,82,0.00,,,0.46,230,HR-IXPWINDi_r2_v1.2.,2013-10-04 19:20:00,
2013-10-04 14:25:00,75.9,69.6,29.61,SE,130,3.0,8.0,81,0.00,,,0.46,121,HR-IXPWINDi_r2_v1.2.,2013-10-04 19:25:00,
2013-10-04 14:30:00,75.7,69.4,29.61,East,94,5.0,12.0,81,0.00,,,0.46,255,HR-IXPWINDi_r2_v1.2.,2013-10-04 19:30:00,
2013-10-04 14:35:00,75.7,69.4,29.61,East,84,7.0,12.0,81,0.00,,,0.46,141,HR-IXPWINDi_r2_v1.2.,2013-10-04 19:35:00,
2013-10-04 14:40:00,75.8,69.9,29.60,East,101,5.0,8.0,82,0.00,,,0.46,260,HR-IXPWINDi_r2_v1.2.,2013-10-04 19:40:00,
2013-10-04 14:45:00,76.6,70.3,29.60,ESE,107,4.0,8.0,81,0.00,,,0.46,220,HR-IXPWINDi_r2_v1.2.,2013-10-04 19:45:00,
2013-10-04 14:50:00,76.8,70.1,29.60,East,101,3.0,10.0,80,0.00,,,0.46,183,HR-IXPWINDi_r2_v1.2.,2013-10-04 19:50:00,
2013-10-04 14:56:00,76.9,70.6,29.60,East,96,6.0,10.0,81,0.00,,,0.46,186,HR-IXPWINDi_r2_v1.2.,2013-10-04 19:56:00,
2013-10-04 15:01:00,77.4,70.7,29.60,ESE,122,2.0,8.0,80,0.00,,,0.46,281,HR-IXPWINDi_r2_v1.2.,2013-10-04 20:01:00,
2013-10-04 15:06:00,78.6,71.1,29.60,ESE,117,5.0,9.0,78,0.00,,,0.46,199,HR-IXPWINDi_r2_v1.2.,2013-10-04 20:06:00,
2013-10-04 15:11:00,78.6,70.7,29.60,SSE,148,2.0,15.0,77,0.00,,,0.46,237,HR-IXPWINDi_r2_v1.2.,2013-10-04 20:11:00,
2013-10-04 15:16:00,79.8,70.7,29.60,SSE,152,1.0,17.0,74,0.00,,,0.46,640,HR-IXPWINDi_r2_v1.2.,2013-10-04 20:16:00,
2013-10-04 15:21:00,80.9,71.0,29.59,SSE,153,9.0,17.0,72,0.00,,,0.46,591,HR-IXPWINDi_r2_v1.2.,2013-10-04 20:21:00,
2013-10-04 15:27:00,81.3,70.9,29.59,East,94,5.0,17.0,71,0.00,,,0.46,220,HR-IXPWINDi_r2_v1.2.,2013-10-04 20:27:00,
2013-10-04 15:32:00,80.9,70.6,29.58,East,86,3.0,20.0,71,0.00,,,0.46,592,HR-IXPWINDi_r2_v1.2.,2013-10-04 20:32:00,
2013-10-04 15:37:00,80.5,70.6,29.59,South,172,2.0,20.0,72,0.00,,,0.46,172,HR-IXPWINDi_r2_v1.2.,2013-10-04 20:37:00,
2013-10-04 15:42:00,80.3,70.8,29.59,East,101,10.0,17.0,73,0.00,,,0.46,188,HR-IXPWINDi_r2_v1.2.,2013-10-04 20:42:00,
2013-10-04 15:47:00,80.4,70.9,29.59,East,88,5.0,17.0,73,0.00,,,0.46,225,HR-IXPWINDi_r2_v1.2.,2013-10-04 20:47:00,
2013-10-04 15:53:00,80.3,70.8,29.59,SE,130,6.0,12.0,73,0.00,,,0.46,111,HR-IXPWINDi_r2_v1.2.,2013-10-04 20:53:00,
2013-10-04 15:58:00,80.1,71.0,29.59,NE,56,10.0,14.0,74,0.00,,,0.46,559,HR-IXPWINDi_r2_v1.2.,2013-10-04 20:58:00,
2013-10-04 16:03:00,80.9,71.4,29.59,SE,136,6.0,17.0,73,0.00,,,0.46,559,HR-IXPWINDi_r2_v1.2.,2013-10-04 21:03:00,
2013-10-04 16:08:00,81.1,71.2,29.58,SSE,156,7.0,17.0,72,0.00,,,0.46,468,HR-IXPWINDi_r2_v1.2.,2013-10-04 21:08:00,
2013-10-04 16:13:00,81.9,71.9,29.58,SSE,150,6.0,14.0,72,0.00,,,0.46,510,HR-IXPWINDi_r2_v1.2.,2013-10-04 21:13:00,
2013-10-04 16:19:00,81.9,71.5,29.58,SSE,158,2.0,11.0,71,0.00,,,0.46,76,HR-IXPWINDi_r2_v1.2.,2013-10-04 21:19:00,
2013-10-04 16:24:00,81.2,70.4,29.58,East,82,5.0,15.0,70,0.00,,,0.46,79,HR-IXPWINDi_r2_v1.2.,2013-10-04 21:24:00,
2013-10-04 16:29:00,80.6,70.7,29.58,ESE,119,8.0,15.0,72,0.00,,,0.46,132,HR-IXPWINDi_r2_v1.2.,2013-10-04 21:29:00,
2013-10-04 16:34:00,81.0,71.1,29.58,SE,132,7.0,15.0,72,0.00,,,0.46,156,HR-IXPWINDi_r2_v1.2.,2013-10-04 21:34:00,
2013-10-04 16:39:00,81.4,71.5,29.57,SE,139,3.0,15.0,72,0.00,,,0.46,485,HR-IXPWINDi_r2_v1.2.,2013-10-04 21:39:00,
2013-10-04 16:44:00,81.8,71.4,29.57,South,180,1.0,15.0,71,0.00,,,0.46,403,HR-IXPWINDi_r2_v1.2.,2013-10-04 21:44:00,
2013-10-04 16:50:00,82.2,71.4,29.57,South,186,3.0,15.0,70,0.00,,,0.46,441,HR-IXPWINDi_r2_v1.2.,2013-10-04 21:50:00,
2013-10-04 16:55:00,82.2,71.4,29.57,ESE,119,4.0,10.0,70,0.00,,,0.46,262,HR-IXPWINDi_r2_v1.2.,2013-10-04 21:55:00,
2013-10-04 17:00:00,82.4,71.2,29.56,SSE,148,5.0,16.0,69,0.00,,,0.46,329,HR-IXPWINDi_r2_v1.2.,2013-10-04 22:00:00,
2013-10-04 17:06:00,82.7,71.4,29.56,East,99,9.0,16.0,69,0.00,,,0.46,301,HR-IXPWINDi_r2_v1.2.,2013-10-04 22:06:00,
2013-10-04 17:11:00,82.8,71.5,29.56,South,187,4.0,12.0,69,0.00,,,0.46,295,HR-IXPWINDi_r2_v1.2.,2013-10-04 22:11:00,
2013-10-04 17:16:00,83.2,71.1,29.56,ESE,123,4.0,12.0,67,0.00,,,0.46,292,HR-IXPWINDi_r2_v1.2.,2013-10-04 22:16:00,
2013-10-04 17:21:00,83.1,71.0,29.56,SSW,195,3.0,11.0,67,0.00,,,0.46,81,HR-IXPWINDi_r2_v1.2.,2013-10-04 22:21:00,
2013-10-04 17:26:00,83.0,70.9,29.56,West,269,5.0,10.0,67,0.00,,,0.46,130,HR-IXPWINDi_r2_v1.2.,2013-10-04 22:26:00,
2013-10-04 17:31:00,83.6,69.6,29.56,SSW,202,3.0,12.0,63,0.00,,,0.46,283,HR-IXPWINDi_r2_v1.2.,2013-10-04 22:31:00,
2013-10-04 17:36:00,84.2,68.3,29.56,SSE,152,4.0,12.0,59,0.00,,,0.46,137,HR-IXPWINDi_r2_v1.2.,2013-10-04 22:36:00,
2013-10-04 17:41:00,84.0,67.6,29.56,SSE,160,4.0,12.0,58,0.00,,,0.46,74,HR-IXPWINDi_r2_v1.2.,2013-10-04 22:41:00,
2013-10-04 17:46:00,83.7,67.3,29.56,West,265,4.0,13.0,58,0.00,,,0.46,97,HR-IXPWINDi_r2_v1.2.,2013-10-04 22:46:00,
2013-10-04 17:51:00,83.5,67.6,29.56,SSW,209,4.0,13.0,59,0.00,,,0.46,200,HR-IXPWINDi_r2_v1.2.,2013-10-04 22:51:00,
2013-10-04 17:57:00,83.7,67.3,29.57,SSW,202,3.0,13.0,58,0.00,,,0.46,69,HR-IXPWINDi_r2_v1.2.,2013-10-04 22:57:00,
2013-10-04 18:02:00,83.6,67.2,29.57,SSW,201,3.0,10.0,58,0.00,,,0.46,69,HR-IXPWINDi_r2_v1.2.,2013-10-04 23:02:00,
2013-10-04 18:07:00,83.3,66.9,29.56,SSE,160,3.0,11.0,58,0.00,,,0.46,114,HR-IXPWINDi_r2_v1.2.,2013-10-04 23:07:00,
2013-10-04 18:12:00,83.4,67.0,29.57,SSE,155,4.0,11.0,58,0.00,,,0.46,141,HR-IXPWINDi_r2_v1.2.,2013-10-04 23:12:00,
2013-10-04 18:17:00,83.6,67.2,29.57,SSW,198,3.0,9.0,58,0.00,,,0.46,149,HR-IXPWINDi_r2_v1.2.,2013-10-04 23:17:00,
2013-10-04 18:22:00,83.8,67.4,29.59,WSW,244,9.0,21.0,58,0.00,,,0.46,105,HR-IXPWINDi_r2_v1.2.,2013-10-04 23:22:00,
2013-10-04 18:27:00,83.3,63.2,29.59,North,360,12.0,21.0,51,0.00,,,0.46,76,HR-IXPWINDi_r2_v1.2.,2013-10-04 23:27:00,
2013-10-04 18:32:00,82.5,61.4,29.59,WSW,242,16.0,21.0,49,0.00,,,0.46,69,HR-IXPWINDi_r2_v1.2.,2013-10-04 23:32:00,
2013-10-04 18:37:00,82.0,61.5,29.60,SW,229,9.0,21.0,50,0.00,,,0.46,54,HR-IXPWINDi_r2_v1.2.,2013-10-04 23:37:00,
2013-10-04 18:42:00,81.4,61.5,29.60,West,277,17.0,22.0,51,0.00,,,0.46,35,HR-IXPWINDi_r2_v1.2.,2013-10-04 23:42:00,
2013-10-04 18:47:00,80.3,60.5,29.61,North,360,11.0,22.0,51,0.00,,,0.46,21,HR-IXPWINDi_r2_v1.2.,2013-10-04 23:47:00,
2013-10-04 18:52:00,79.1,60.5,29.62,WSW,244,12.0,24.0,53,0.00,,,0.46,14,HR-IXPWINDi_r2_v1.2.,2013-10-04 23:52:00,
2013-10-04 18:57:00,77.9,59.9,29.63,WSW,240,12.0,24.0,54,0.00,,,0.46,9,HR-IXPWINDi_r2_v1.2.,2013-10-04 23:57:00,
2013-10-04 19:02:00,77.0,59.0,29.63,SW,216,15.0,26.0,54,0.00,,,0.46,5,HR-IXPWINDi_r2_v1.2.,2013-10-05 00:02:00,
2013-10-04 19:08:00,76.3,58.9,29.64,SW,215,22.0,26.0,55,0.00,,,0.46,0,HR-IXPWINDi_r2_v1.2.,2013-10-05 00:08:00,
2013-10-04 19:13:00,75.7,58.8,29.64,WSW,246,17.0,25.0,56,0.00,,,0.46,0,HR-IXPWINDi_r2_v1.2.,2013-10-05 00:13:00,
2013-10-04 19:18:00,75.3,58.5,29.64,West,259,12.0,24.0,56,0.00,,,0.46,0,HR-IXPWINDi_r2_v1.2.,2013-10-05 00:18:00,
2013-10-04 19:23:00,74.9,58.6,29.64,West,270,11.0,24.0,57,0.00,,,0.46,0,HR-IXPWINDi_r2_v1.2.,2013-10-05 00:23:00,
2013-10-04 19:28:00,74.5,58.7,29.65,SW,232,18.0,25.0,58,0.00,,,0.46,0,HR-IXPWINDi_r2_v1.2.,2013-10-05 00:28:00,
2013-10-04 19:34:00,74.1,58.3,29.66,WSW,239,26.0,26.0,58,0.00,,,0.46,0,HR-IXPWINDi_r2_v1.2.,2013-10-05 00:34:00,
2013-10-04 19:39:00,73.7,58.4,29.66,North,360,17.0,28.0,59,0.00,,,0.46,0,HR-IXPWINDi_r2_v1.2.,2013-10-05 00:39:00,
2013-10-04 19:44:00,73.3,58.5,29.66,West,265,19.0,28.0,60,0.00,,,0.46,0,HR-IXPWINDi_r2_v1.2.,2013-10-05 00:44:00,
2013-10-04 19:49:00,72.8,58.1,29.67,West,269,14.0,27.0,60,0.00,,,0.46,0,HR-IXPWINDi_r2_v1.2.,2013-10-05 00:49:00,
2013-10-04 19:54:00,72.2,57.5,29.67,WSW,250,19.0,25.0,60,0.00,,,0.46,0,HR-IXPWINDi_r2_v1.2.,2013-10-05 00:54:00,
2013-10-04 19:59:00,71.7,57.5,29.68,WNW,282,14.0,25.0,61,0.00,,,0.46,0,HR-IXPWINDi_r2_v1.2.,2013-10-05 00:59:00,
2013-10-04 20:04:00,71.2,57.0,29.69,North,360,16.0,25.0,61,0.00,,,0.46,0,HR-IXPWINDi_r2_v1.2.,2013-10-05 01:04:00,
2013-10-04 20:10:00,70.8,57.1,29.69,WNW,296,11.0,23.0,62,0.00,,,0.46,0,HR-IXPWINDi_r2_v1.2.,2013-10-05 01:10:00,
2013-10-04 20:15:00,70.3,57.1,29.70,West,274,11.0,23.0,63,0.00,,,0.46,0,HR-IXPWINDi_r2_v1.2.,2013-10-05 01:15:00,
2013-10-04 20:20:00,69.8,55.7,29.69,WSW,255,17.0,25.0,61,0.00,,,0.46,0,HR-IXPWINDi_r2_v1.2.,2013-10-05 01:20:00,
2013-10-04 20:25:00,69.3,54.3,29.69,West,269,21.0,26.0,59,0.00,,,0.46,0,HR-IXPWINDi_r2_v1.2.,2013-10-05 01:25:00,
2013-10-04 20:31:00,68.8,52.9,29.70,North,360,15.0,26.0,57,0.00,,,0.46,0,HR-IXPWINDi_r2_v1.2.,2013-10-05 01:31:00,
2013-10-04 20:36:00,68.3,51.9,29.71,North,360,9.0,26.0,56,0.00,,,0.46,0,HR-IXPWINDi_r2_v1.2.,2013-10-05 01:36:00,
2013-10-04 20:41:00,67.7,51.4,29.72,North,360,8.0,26.0,56,0.00,,,0.46,0,HR-IXPWINDi_r2_v1.2.,2013-10-05 01:41:00,
2013-10-04 20:46:00,67.3,51.5,29.72,North,360,16.0,26.0,57,0.00,,,0.46,0,HR-IXPWINDi_r2_v1.2.,2013-10-05 01:46:00,
2013-10-04 20:51:00,66.8,51.0,29.72,North,360,14.0,23.0,57,0.00,,,0.46,0,HR-IXPWINDi_r2_v1.2.,2013-10-05 01:51:00,
2013-10-04 20:57:00,66.5,50.7,29.72,North,360,11.0,21.0,57,0.00,,,0.46,0,HR-IXPWINDi_r2_v1.2.,2013-10-05 01:57:00,
2013-10-04 21:02:00,66.1,50.4,29.73,West,278,13.0,22.0,57,0.00,,,0.46,0,HR-IXPWINDi_r2_v1.2.,2013-10-05 02:02:00,
2013-10-04 21:07:00,65.9,50.2,29.74,North,360,10.0,26.0,57,0.00,,,0.46,0,HR-IXPWINDi_r2_v1.2.,2013-10-05 02:07:00,
2013-10-04 21:12:00,65.7,50.0,29.73,North,360,6.0,26.0,57,0.00,,,0.46,0,HR-IXPWINDi_r2_v1.2.,2013-10-05 02:12:00,
2013-10-04 21:17:00,65.2,49.5,29.73,West,269,16.0,21.0,57,0.00,,,0.46,0,HR-IXPWINDi_r2_v1.2.,2013-10-05 02:17:00,
2013-10-04 21:22:00,64.8,49.2,29.74,West,277,8.0,23.0,57,0.00,,,0.46,0,HR-IXPWINDi_r2_v1.2.,2013-10-05 02:22:00,
2013-10-04 21:27:00,64.4,49.3,29.75,WNW,296,6.0,23.0,58,0.00,,,0.46,0,HR-IXPWINDi_r2_v1.2.,2013-10-05 02:27:00,
2013-10-04 21:32:00,64.0,48.9,29.75,West,265,15.0,20.0,58,0.00,,,0.46,0,HR-IXPWINDi_r2_v1.2.,2013-10-05 02:32:00,
2013-10-04 21:37:00,63.6,48.0,29.75,West,278,11.0,28.0,57,0.00,,,0.46,0,HR-IXPWINDi_r2_v1.2.,2013-10-05 02:37:00,
2013-10-04 21:42:00,63.1,48.0,29.75,West,275,13.0,28.0,58,0.00,,,0.46,0,HR-IXPWINDi_r2_v1.2.,2013-10-05 02:42:00,
2013-10-04 21:48:00,62.7,48.1,29.76,North,360,15.0,21.0,59,0.00,,,0.46,0,HR-IXPWINDi_r2_v1.2.,2013-10-05 02:48:00,
2013-10-04 21:53:00,62.5,48.4,29.77,West,280,8.0,23.0,60,0.00,,,0.46,0,HR-IXPWINDi_r2_v1.2.,2013-10-05 02:53:00,
2013-10-04 21:58:00,62.0,47.9,29.77,North,360,14.0,23.0,60,0.00,,,0.46,0,HR-IXPWINDi_r2_v1.2.,2013-10-05 02:58:00,
2013-10-04 22:03:00,61.0,47.0,29.76,North,360,22.0,23.0,60,0.00,,,0.46,0,HR-IXPWINDi_r2_v1.2.,2013-10-05 03:03:00,
2013-10-04 22:08:00,60.4,46.8,29.77,WNW,298,10.0,23.0,61,0.00,,,0.46,0,HR-IXPWINDi_r2_v1.2.,2013-10-05 03:08:00,
2013-10-04 22:13:00,59.9,45.9,29.77,West,263,10.0,22.0,60,0.00,,,0.46,0,HR-IXPWINDi_r2_v1.2.,2013-10-05 03:13:00,
2013-10-04 22:18:00,59.4,45.9,29.78,North,360,13.0,23.0,61,0.00,,,0.46,0,HR-IXPWINDi_r2_v1.2.,2013-10-05 03:18:00,
2013-10-04 22:24:00,58.8,42.6,29.79,North,360,18.0,30.0,55,0.00,,,0.46,0,HR-IXPWINDi_r2_v1.2.,2013-10-05 03:24:00,
2013-10-04 22:29:00,58.1,41.5,29.79,WSW,248,24.0,30.0,54,0.00,,,0.46,0,HR-IXPWINDi_r2_v1.2.,2013-10-05 03:29:00,
2013-10-04 22:34:00,57.5,41.4,29.79,North,360,19.0,29.0,55,0.00,,,0.46,0,HR-IXPWINDi_r2_v1.2.,2013-10-05 03:34:00,
2013-10-04 22:39:00,56.9,41.3,29.79,WNW,300,14.0,27.0,56,0.00,,,0.46,0,HR-IXPWINDi_r2_v1.2.,2013-10-05 03:39:00,
2013-10-04 22:44:00,56.3,41.7,29.80,NW,309,15.0,27.0,58,0.00,,,0.46,0,HR-IXPWINDi_r2_v1.2.,2013-10-05 03:44:00,
2013-10-04 22:49:00,55.9,41.7,29.81,West,270,12.0,26.0,59,0.00,,,0.46,0,HR-IXPWINDi_r2_v1.2.,2013-10-05 03:49:00,
2013-10-04 22:54:00,55.5,41.8,29.80,West,275,13.0,26.0,60,0.00,,,0.46,0,HR-IXPWINDi_r2_v1.2.,2013-10-05 03:54:00,
2013-10-04 22:59:00,55.2,41.9,29.80,West,275,11.0,24.0,61,0.00,,,0.46,0,HR-IXPWINDi_r2_v1.2.,2013-10-05 03:59:00,
2013-10-04 23:01:00,55.2,41.9,29.80,WNW,286,13.0,24.0,61,0.00,,,0.46,0,HR-IXPWINDi_r2_v1.2.,2013-10-05 04:01:00,
2013-10-04 23:06:00,54.9,41.7,29.82,West,271,12.0,23.0,61,0.00,,,0.46,0,HR-IXPWINDi_r2_v1.2.,2013-10-05 04:06:00,
2013-10-04 23:11:00,54.6,41.4,29.82,WNW,284,20.0,23.0,61,0.00,,,0.46,0,HR-IXPWINDi_r2_v1.2.,2013-10-05 04:11:00,
2013-10-04 23:16:00,54.2,40.1,29.82,West,273,15.0,25.0,59,0.00,,,0.46,0,HR-IXPWINDi_r2_v1.2.,2013-10-05 04:16:00,
2013-10-04 23:21:00,53.7,39.2,29.82,West,279,19.0,25.0,58,0.00,,,0.46,0,HR-IXPWINDi_r2_v1.2.,2013-10-05 04:21:00,
2013-10-04 23:27:00,53.2,38.8,29.82,West,275,18.0,25.0,58,0.00,,,0.46,0,HR-IXPWINDi_r2_v1.2.,2013-10-05 04:27:00,
2013-10-04 23:32:00,52.8,39.3,29.83,West,278,10.0,21.0,60,0.00,,,0.46,0,HR-IXPWINDi_r2_v1.2.,2013-10-05 04:32:00,
2013-10-04 23:37:00,52.4,38.9,29.83,WNW,290,12.0,20.0,60,0.00,,,0.46,0,HR-IXPWINDi_r2_v1.2.,2013-10-05 04:37:00,
2013-10-04 23:42:00,52.3,38.8,29.84,West,279,8.0,22.0,60,0.00,,,0.46,0,HR-IXPWINDi_r2_v1.2.,2013-10-05 04:42:00,
2013-10-04 23:48:00,52.2,38.7,29.84,WNW,288,6.0,22.0,60,0.00,,,0.46,0,HR-IXPWINDi_r2_v1.2.,2013-10-05 04:48:00,
2013-10-04 23:53:00,52.0,38.9,29.83,West,278,10.0,17.0,61,0.00,,,0.46,0,HR-IXPWINDi_r2_v1.2.,2013-10-05 04:53:00,
2013-10-04 23:58:00,51.9,38.8,29.84,West,268,12.0,18.0,61,0.00,,,0.46,0,HR-IXPWINDi_r2_v1.2.,2013-10-05 04:58:00,